Richfield, UT (84701)

11:05 AM MST on February 19, 2017 (GMT -0700)
Putter Butt Farms | | Change Station

Elev 5322 ft 38.65 °N, 112.14 °W | Updated 10 seconds ago

Overcast
Overcast
49.5 °F
Feels Like 45 °F
N
10.6
Wind Variable Wind from SSW
Gusts 15.0 mph

Today
High -- | Low -- °F
--% Chance of Precip.
Yesterday
High -- | Low -- °F
Precip. -- in
Pressure 29.70 in
Visibility 10.0 miles
Clouds Scattered Clouds 2200 ft
Mostly Cloudy 2700 ft
Overcast 8500 ft
Windchill 45 °F
Dew Point 33 °F
Humidity 53%
Rainfall 0.00 in
Snow Depth Not available.
7:13 AM 6:10 PM
Last Quarter, 41% visible
METAR KMLF 191752Z AUTO 20022G29KT 10SM SCT022 BKN027 OVC085 08/04 A2975 RMK AO2 PK WND 20029/1751 SLP055 T00830039 10089 20033 51017
Pressure 29.70 in
Visibility 10.0 miles
Clouds Scattered Clouds 2200 ft
Mostly Cloudy 2700 ft
Overcast 8500 ft
Windchill 45 °F
Dew Point 33 °F
Humidity 53%
Rainfall 0.00 in
Snow Depth Not available.
7:13 AM 6:10 PM
Last Quarter, 41% visible
METAR KMLF 191752Z AUTO 20022G29KT 10SM SCT022 BKN027 OVC085 08/04 A2975 RMK AO2 PK WND 20029/1751 SLP055 T00830039 10089 20033 51017

Get Your Daily Forecast Email!

Thanks for signing up!

Be on the lookout for a verification email in your inbox.

You'll start receiving the daily forecast at 8 AM.

×

10-Day Weather Forecast

Almanac

Astronomy

Feb. 19, 2017 Rise Set
Actual Time
Civil Twilight
Nautical Twilight
Astronomical Twilight
Moon
Length of Visible Light
Length of Day
Tomorrow will be .
, % of the Moon is Illuminated

Today's Extremes

State Highs State Lows

Community

WunderPhotos

Upload Photos

1,962,540 photos uploaded!

WunderBlog® & News

Nearby

Air Quality

  Air Quality AQ Index Pollutant
Not available.

Snow Depth

Station Depth Elevation

Earthquake Activity

City Distance Mag. Time & Date
Minimum magnitude displayed is 2.5.

Coastal Water Temperatures

Place Temperature

Stations

Nearby Weather Stations

Station Location Temp. Windchill Dew Point Humidity Wind Precip. Elev Updated Type
                   

Watches & Warnings

There are currently no watches in effect.